sensor_id;sensor_type;location;lat;lon;timestamp;pressure;altitude;pressure_sealevel;temperature;humidity
42411;BME280;28056;51.112;0.984;2023-10-31T00:01:05;98911.57;;;11.92;85.55
42411;BME280;28056;51.112;0.984;2023-10-31T00:03:33;98910.76;;;11.87;85.90
42411;BME280;28056;51.112;0.984;2023-10-31T00:06:00;98908.58;;;11.97;86.36
42411;BME280;28056;51.112;0.984;2023-10-31T00:08:27;98908.88;;;11.84;85.91
42411;BME280;28056;51.112;0.984;2023-10-31T00:10:54;98913.61;;;12.05;85.84
42411;BME280;28056;51.112;0.984;2023-10-31T00:13:21;98916.41;;;11.81;85.53
42411;BME280;28056;51.112;0.984;2023-10-31T00:15:49;98916.22;;;11.62;85.45
42411;BME280;28056;51.112;0.984;2023-10-31T00:18:17;98918.44;;;11.74;84.94
42411;BME280;28056;51.112;0.984;2023-10-31T00:20:46;98918.10;;;12.09;84.29
42411;BME280;28056;51.112;0.984;2023-10-31T00:23:14;98916.75;;;11.60;84.24
42411;BME280;28056;51.112;0.984;2023-10-31T00:25:42;98924.70;;;11.45;83.75
42411;BME280;28056;51.112;0.984;2023-10-31T00:28:09;98928.22;;;11.32;84.48
42411;BME280;28056;51.112;0.984;2023-10-31T00:30:37;98930.41;;;11.70;84.11
42411;BME280;28056;51.112;0.984;2023-10-31T00:33:03;98932.57;;;11.86;83.27
42411;BME280;28056;51.112;0.984;2023-10-31T00:35:30;98934.87;;;11.52;84.26
42411;BME280;28056;51.112;0.984;2023-10-31T00:37:57;98934.20;;;11.54;84.37
42411;BME280;28056;51.112;0.984;2023-10-31T00:40:24;98938.65;;;11.68;84.71
42411;BME280;28056;51.112;0.984;2023-10-31T00:42:51;98941.54;;;11.36;86.10
42411;BME280;28056;51.112;0.984;2023-10-31T00:45:18;98939.67;;;11.61;84.97
42411;BME280;28056;51.112;0.984;2023-10-31T00:47:46;98941.62;;;11.43;84.77
42411;BME280;28056;51.112;0.984;2023-10-31T00:50:14;98943.50;;;11.36;85.87
42411;BME280;28056;51.112;0.984;2023-10-31T00:52:42;98946.36;;;11.44;85.31
42411;BME280;28056;51.112;0.984;2023-10-31T00:55:09;98941.80;;;11.54;84.87
42411;BME280;28056;51.112;0.984;2023-10-31T00:57:37;98946.20;;;11.46;85.12
42411;BME280;28056;51.112;0.984;2023-10-31T01:00:06;98948.06;;;11.52;84.85
42411;BME280;28056;51.112;0.984;2023-10-31T01:04:46;98944.40;;;11.28;83.16
42411;BME280;28056;51.112;0.984;2023-10-31T01:07:13;98947.17;;;11.60;82.46
42411;BME280;28056;51.112;0.984;2023-10-31T01:09:41;98950.01;;;11.26;82.67
42411;BME280;28056;51.112;0.984;2023-10-31T01:12:08;98950.48;;;11.15;82.62
42411;BME280;28056;51.112;0.984;2023-10-31T01:14:36;98952.55;;;11.53;82.17
42411;BME280;28056;51.112;0.984;2023-10-31T01:17:04;98951.95;;;11.20;82.42
42411;BME280;28056;51.112;0.984;2023-10-31T01:19:31;98949.80;;;11.31;82.52
42411;BME280;28056;51.112;0.984;2023-10-31T01:21:58;98953.39;;;11.18;82.83
42411;BME280;28056;51.112;0.984;2023-10-31T01:24:25;98951.74;;;11.31;82.72
42411;BME280;28056;51.112;0.984;2023-10-31T01:26:52;98952.35;;;11.07;82.80
42411;BME280;28056;51.112;0.984;2023-10-31T01:29:20;98954.57;;;11.09;83.94
42411;BME280;28056;51.112;0.984;2023-10-31T01:31:47;98959.83;;;10.52;86.46
42411;BME280;28056;51.112;0.984;2023-10-31T01:34:14;98961.06;;;10.40;87.14
42411;BME280;28056;51.112;0.984;2023-10-31T01:36:41;98965.45;;;10.69;85.90
42411;BME280;28056;51.112;0.984;2023-10-31T01:39:08;98968.59;;;10.81;85.29
42411;BME280;28056;51.112;0.984;2023-10-31T01:41:36;98967.51;;;10.42;86.41
42411;BME280;28056;51.112;0.984;2023-10-31T01:44:04;98967.02;;;10.45;86.64
42411;BME280;28056;51.112;0.984;2023-10-31T01:46:31;98967.11;;;10.41;86.54
42411;BME280;28056;51.112;0.984;2023-10-31T01:48:58;98966.07;;;10.16;87.20
42411;BME280;28056;51.112;0.984;2023-10-31T01:51:26;98966.78;;;10.24;86.76
42411;BME280;28056;51.112;0.984;2023-10-31T01:53:55;98966.85;;;10.57;86.12
42411;BME280;28056;51.112;0.984;2023-10-31T01:56:23;98968.22;;;10.96;85.85
42411;BME280;28056;51.112;0.984;2023-10-31T01:58:53;98971.09;;;10.61;85.82
42411;BME280;28056;51.112;0.984;2023-10-31T02:01:20;98973.53;;;10.77;85.33
42411;BME280;28056;51.112;0.984;2023-10-31T02:03:48;98974.84;;;10.81;85.28
42411;BME280;28056;51.112;0.984;2023-10-31T02:06:16;98977.51;;;10.80;85.16
42411;BME280;28056;51.112;0.984;2023-10-31T02:08:43;98975.91;;;10.35;86.11
42411;BME280;28056;51.112;0.984;2023-10-31T02:11:10;98973.42;;;10.81;85.69
42411;BME280;28056;51.112;0.984;2023-10-31T02:13:38;98974.72;;;10.84;85.71
42411;BME280;28056;51.112;0.984;2023-10-31T02:16:06;98976.53;;;10.77;86.11
42411;BME280;28056;51.112;0.984;2023-10-31T02:18:33;98977.18;;;10.59;85.78
42411;BME280;28056;51.112;0.984;2023-10-31T02:21:01;98978.64;;;10.69;85.42
42411;BME280;28056;51.112;0.984;2023-10-31T02:23:28;98973.08;;;10.64;85.85
42411;BME280;28056;51.112;0.984;2023-10-31T02:25:56;98973.84;;;10.56;86.13
42411;BME280;28056;51.112;0.984;2023-10-31T02:28:23;98971.83;;;10.70;85.26
42411;BME280;28056;51.112;0.984;2023-10-31T02:30:51;98972.95;;;10.62;86.61
42411;BME280;28056;51.112;0.984;2023-10-31T02:33:18;98972.65;;;10.80;85.75
42411;BME280;28056;51.112;0.984;2023-10-31T02:35:45;98971.82;;;10.67;86.14
42411;BME280;28056;51.112;0.984;2023-10-31T02:38:12;98967.29;;;10.79;85.30
42411;BME280;28056;51.112;0.984;2023-10-31T02:40:40;98965.97;;;10.43;85.69
42411;BME280;28056;51.112;0.984;2023-10-31T02:43:07;98964.86;;;10.90;84.28
42411;BME280;28056;51.112;0.984;2023-10-31T02:45:34;98963.85;;;11.04;84.63
42411;BME280;28056;51.112;0.984;2023-10-31T02:48:02;98968.00;;;10.93;84.42
42411;BME280;28056;51.112;0.984;2023-10-31T02:50:29;98966.77;;;10.73;84.15
42411;BME280;28056;51.112;0.984;2023-10-31T02:52:57;98963.54;;;10.31;85.98
42411;BME280;28056;51.112;0.984;2023-10-31T02:55:24;98962.79;;;10.19;86.53
42411;BME280;28056;51.112;0.984;2023-10-31T02:57:51;98964.14;;;10.27;87.61
42411;BME280;28056;51.112;0.984;2023-10-31T03:00:18;98962.41;;;10.20;87.67
42411;BME280;28056;51.112;0.984;2023-10-31T03:02:46;98962.50;;;10.25;86.91
42411;BME280;28056;51.112;0.984;2023-10-31T03:05:13;98960.28;;;10.57;86.46
42411;BME280;28056;51.112;0.984;2023-10-31T03:07:40;98957.29;;;10.29;89.14
42411;BME280;28056;51.112;0.984;2023-10-31T03:10:07;98959.81;;;10.44;88.83
42411;BME280;28056;51.112;0.984;2023-10-31T03:12:35;98961.53;;;9.96;90.31
42411;BME280;28056;51.112;0.984;2023-10-31T03:15:02;98960.25;;;10.51;87.76
42411;BME280;28056;51.112;0.984;2023-10-31T03:17:29;98961.21;;;10.51;87.70
42411;BME280;28056;51.112;0.984;2023-10-31T03:19:56;98962.79;;;10.55;87.69
42411;BME280;28056;51.112;0.984;2023-10-31T03:22:23;98967.13;;;10.80;86.27
42411;BME280;28056;51.112;0.984;2023-10-31T03:24:50;98965.65;;;10.26;87.76
42411;BME280;28056;51.112;0.984;2023-10-31T03:27:17;98965.29;;;10.14;87.64
42411;BME280;28056;51.112;0.984;2023-10-31T03:29:44;98967.76;;;10.57;86.98
42411;BME280;28056;51.112;0.984;2023-10-31T03:32:12;98965.70;;;10.19;88.17
42411;BME280;28056;51.112;0.984;2023-10-31T03:34:40;98971.03;;;9.57;92.57
42411;BME280;28056;51.112;0.984;2023-10-31T03:37:07;98971.14;;;10.50;90.82
42411;BME280;28056;51.112;0.984;2023-10-31T03:39:35;98970.74;;;10.25;90.37
42411;BME280;28056;51.112;0.984;2023-10-31T03:42:02;98973.12;;;10.61;89.08
42411;BME280;28056;51.112;0.984;2023-10-31T03:44:28;98969.54;;;10.72;88.55
42411;BME280;28056;51.112;0.984;2023-10-31T03:46:56;98973.04;;;10.55;88.65
42411;BME280;28056;51.112;0.984;2023-10-31T03:49:22;98973.32;;;10.75;87.77
42411;BME280;28056;51.112;0.984;2023-10-31T03:51:50;98978.46;;;11.09;87.50
42411;BME280;28056;51.112;0.984;2023-10-31T03:54:17;98984.96;;;10.94;87.15
42411;BME280;28056;51.112;0.984;2023-10-31T03:56:45;98990.21;;;11.08;85.81
42411;BME280;28056;51.112;0.984;2023-10-31T03:59:12;98991.27;;;10.85;85.57
42411;BME280;28056;51.112;0.984;2023-10-31T04:01:39;98993.30;;;10.96;84.94
42411;BME280;28056;51.112;0.984;2023-10-31T04:04:06;98992.96;;;10.88;84.78
42411;BME280;28056;51.112;0.984;2023-10-31T04:06:34;98994.39;;;10.71;85.67
42411;BME280;28056;51.112;0.984;2023-10-31T04:09:01;98998.06;;;10.93;86.12
42411;BME280;28056;51.112;0.984;2023-10-31T04:11:29;98998.99;;;10.53;88.51
42411;BME280;28056;51.112;0.984;2023-10-31T04:13:55;98998.88;;;10.47;88.73
42411;BME280;28056;51.112;0.984;2023-10-31T04:16:22;98999.66;;;10.11;91.35
42411;BME280;28056;51.112;0.984;2023-10-31T04:18:50;99001.72;;;9.93;93.12
42411;BME280;28056;51.112;0.984;2023-10-31T04:21:16;98999.19;;;10.78;91.71
42411;BME280;28056;51.112;0.984;2023-10-31T04:23:44;98999.14;;;10.57;91.06
42411;BME280;28056;51.112;0.984;2023-10-31T04:26:11;98999.21;;;10.63;92.00
42411;BME280;28056;51.112;0.984;2023-10-31T04:28:39;99002.21;;;10.71;90.63
42411;BME280;28056;51.112;0.984;2023-10-31T04:31:06;99005.77;;;10.91;89.68
42411;BME280;28056;51.112;0.984;2023-10-31T04:33:33;99006.48;;;11.05;88.94
42411;BME280;28056;51.112;0.984;2023-10-31T04:36:00;99008.41;;;11.28;88.78
42411;BME280;28056;51.112;0.984;2023-10-31T04:38:27;99009.47;;;10.88;88.72
42411;BME280;28056;51.112;0.984;2023-10-31T04:40:55;99009.31;;;10.87;88.96
42411;BME280;28056;51.112;0.984;2023-10-31T04:43:22;99011.64;;;10.54;90.61
42411;BME280;28056;51.112;0.984;2023-10-31T04:45:48;99014.10;;;10.27;93.51
42411;BME280;28056;51.112;0.984;2023-10-31T04:48:15;99015.70;;;10.44;93.48
42411;BME280;28056;51.112;0.984;2023-10-31T04:50:42;99015.09;;;10.37;93.78
42411;BME280;28056;51.112;0.984;2023-10-31T04:53:09;99015.61;;;10.38;94.22
42411;BME280;28056;51.112;0.984;2023-10-31T04:55:37;99016.06;;;11.09;92.97
42411;BME280;28056;51.112;0.984;2023-10-31T04:58:04;99015.98;;;11.00;92.38
42411;BME280;28056;51.112;0.984;2023-10-31T05:00:31;99019.35;;;10.95;92.10
42411;BME280;28056;51.112;0.984;2023-10-31T05:02:58;99022.01;;;11.15;91.72
42411;BME280;28056;51.112;0.984;2023-10-31T05:05:25;99023.16;;;11.17;92.00
42411;BME280;28056;51.112;0.984;2023-10-31T05:07:53;99018.69;;;11.22;91.24
42411;BME280;28056;51.112;0.984;2023-10-31T05:10:20;99017.89;;;11.37;90.85
42411;BME280;28056;51.112;0.984;2023-10-31T05:12:47;99022.29;;;11.29;92.38
42411;BME280;28056;51.112;0.984;2023-10-31T05:15:14;99024.48;;;11.24;91.63
42411;BME280;28056;51.112;0.984;2023-10-31T05:17:41;99028.87;;;11.40;90.07
42411;BME280;28056;51.112;0.984;2023-10-31T05:20:10;99036.24;;;11.50;89.71
42411;BME280;28056;51.112;0.984;2023-10-31T05:22:38;99037.79;;;11.34;90.23
42411;BME280;28056;51.112;0.984;2023-10-31T05:25:08;99041.31;;;11.09;93.08
42411;BME280;28056;51.112;0.984;2023-10-31T05:27:35;99040.46;;;11.02;92.27
42411;BME280;28056;51.112;0.984;2023-10-31T05:30:02;99039.71;;;10.89;92.47
42411;BME280;28056;51.112;0.984;2023-10-31T05:32:31;99040.75;;;11.02;92.56
42411;BME280;28056;51.112;0.984;2023-10-31T05:34:59;99040.45;;;10.78;95.56
42411;BME280;28056;51.112;0.984;2023-10-31T05:37:25;99037.93;;;11.22;93.92
42411;BME280;28056;51.112;0.984;2023-10-31T05:39:52;99040.60;;;11.37;94.42
42411;BME280;28056;51.112;0.984;2023-10-31T05:42:19;99038.13;;;11.40;94.80
42411;BME280;28056;51.112;0.984;2023-10-31T05:44:46;99040.36;;;11.49;93.67
42411;BME280;28056;51.112;0.984;2023-10-31T05:47:13;99037.43;;;11.62;93.70
42411;BME280;28056;51.112;0.984;2023-10-31T05:49:43;99039.96;;;11.83;92.89
42411;BME280;28056;51.112;0.984;2023-10-31T05:52:11;99042.53;;;11.78;91.89
42411;BME280;28056;51.112;0.984;2023-10-31T05:54:38;99039.89;;;11.88;91.65
42411;BME280;28056;51.112;0.984;2023-10-31T05:57:04;99042.74;;;12.15;92.05
42411;BME280;28056;51.112;0.984;2023-10-31T05:59:32;99041.18;;;12.19;90.98
42411;BME280;28056;51.112;0.984;2023-10-31T06:01:59;99042.50;;;11.88;93.68
42411;BME280;28056;51.112;0.984;2023-10-31T06:04:27;99042.93;;;12.61;91.98
42411;BME280;28056;51.112;0.984;2023-10-31T06:06:55;99039.64;;;12.04;92.94
42411;BME280;28056;51.112;0.984;2023-10-31T06:09:22;99040.09;;;11.91;94.26
42411;BME280;28056;51.112;0.984;2023-10-31T06:11:49;99042.94;;;11.96;94.34
42411;BME280;28056;51.112;0.984;2023-10-31T06:14:16;99044.36;;;11.05;98.51
42411;BME280;28056;51.112;0.984;2023-10-31T06:16:44;99050.36;;;11.83;96.21
42411;BME280;28056;51.112;0.984;2023-10-31T06:19:11;99053.93;;;11.69;97.26
42411;BME280;28056;51.112;0.984;2023-10-31T06:21:38;99055.39;;;11.94;96.23
42411;BME280;28056;51.112;0.984;2023-10-31T06:24:05;99057.03;;;11.28;100.00
42411;BME280;28056;51.112;0.984;2023-10-31T06:26:33;99060.67;;;11.98;96.84
42411;BME280;28056;51.112;0.984;2023-10-31T06:29:00;99064.96;;;12.12;95.27
42411;BME280;28056;51.112;0.984;2023-10-31T06:31:26;99068.27;;;11.94;95.92
42411;BME280;28056;51.112;0.984;2023-10-31T06:33:53;99071.09;;;11.49;94.96
42411;BME280;28056;51.112;0.984;2023-10-31T06:36:20;99075.48;;;11.80;94.89
42411;BME280;28056;51.112;0.984;2023-10-31T06:38:47;99083.89;;;11.70;94.19
42411;BME280;28056;51.112;0.984;2023-10-31T06:41:15;99084.15;;;11.66;95.36
42411;BME280;28056;51.112;0.984;2023-10-31T06:43:42;99089.91;;;11.56;94.87
42411;BME280;28056;51.112;0.984;2023-10-31T06:46:11;99096.84;;;11.77;93.96
42411;BME280;28056;51.112;0.984;2023-10-31T06:48:38;99098.82;;;11.45;95.67
42411;BME280;28056;51.112;0.984;2023-10-31T06:51:05;99100.31;;;11.04;99.37
42411;BME280;28056;51.112;0.984;2023-10-31T06:53:32;99100.89;;;11.42;98.70
42411;BME280;28056;51.112;0.984;2023-10-31T06:55:59;99098.13;;;11.02;100.00
42411;BME280;28056;51.112;0.984;2023-10-31T06:58:27;99096.80;;;10.51;100.00
42411;BME280;28056;51.112;0.984;2023-10-31T07:00:55;99097.80;;;11.42;100.00
42411;BME280;28056;51.112;0.984;2023-10-31T07:03:22;99095.59;;;11.16;100.00
42411;BME280;28056;51.112;0.984;2023-10-31T07:05:49;99097.49;;;12.06;99.01
42411;BME280;28056;51.112;0.984;2023-10-31T07:08:17;99099.23;;;11.74;98.53
42411;BME280;28056;51.112;0.984;2023-10-31T07:10:44;99104.23;;;12.15;97.68
42411;BME280;28056;51.112;0.984;2023-10-31T07:13:12;99105.58;;;12.21;95.63
42411;BME280;28056;51.112;0.984;2023-10-31T07:15:40;99107.03;;;12.34;94.88
42411;BME280;28056;51.112;0.984;2023-10-31T07:18:07;99107.40;;;11.98;95.78
42411;BME280;28056;51.112;0.984;2023-10-31T07:20:35;99106.92;;;12.45;94.48
42411;BME280;28056;51.112;0.984;2023-10-31T07:23:03;99103.95;;;12.63;93.58
42411;BME280;28056;51.112;0.984;2023-10-31T07:25:31;99113.19;;;12.76;93.05
42411;BME280;28056;51.112;0.984;2023-10-31T07:27:57;99115.54;;;12.83;93.31
42411;BME280;28056;51.112;0.984;2023-10-31T07:30:24;99120.83;;;12.93;92.76
42411;BME280;28056;51.112;0.984;2023-10-31T07:32:52;99122.28;;;12.93;92.76
42411;BME280;28056;51.112;0.984;2023-10-31T07:35:19;99126.11;;;12.20;94.61
42411;BME280;28056;51.112;0.984;2023-10-31T07:37:46;99125.28;;;12.72;92.63
42411;BME280;28056;51.112;0.984;2023-10-31T07:40:13;99122.86;;;12.49;93.62
42411;BME280;28056;51.112;0.984;2023-10-31T07:42:41;99121.65;;;12.23;95.27
42411;BME280;28056;51.112;0.984;2023-10-31T07:45:08;99119.10;;;12.54;94.03
42411;BME280;28056;51.112;0.984;2023-10-31T07:47:36;99115.29;;;12.33;95.17
42411;BME280;28056;51.112;0.984;2023-10-31T07:50:03;99112.14;;;11.59;100.00
42411;BME280;28056;51.112;0.984;2023-10-31T07:52:31;99111.04;;;12.03;98.37
42411;BME280;28056;51.112;0.984;2023-10-31T07:54:59;99108.41;;;11.77;100.00
42411;BME280;28056;51.112;0.984;2023-10-31T07:57:25;99109.62;;;12.31;97.38
42411;BME280;28056;51.112;0.984;2023-10-31T07:59:52;99108.44;;;12.02;99.49
42411;BME280;28056;51.112;0.984;2023-10-31T08:02:20;99118.35;;;12.56;96.48
42411;BME280;28056;51.112;0.984;2023-10-31T08:04:47;99126.33;;;12.76;95.37
42411;BME280;28056;51.112;0.984;2023-10-31T08:07:14;99133.20;;;12.86;95.05
42411;BME280;28056;51.112;0.984;2023-10-31T08:09:41;99136.89;;;12.72;95.03
42411;BME280;28056;51.112;0.984;2023-10-31T08:12:08;99142.32;;;12.13;97.14
42411;BME280;28056;51.112;0.984;2023-10-31T08:14:35;99134.82;;;12.92;94.63
42411;BME280;28056;51.112;0.984;2023-10-31T08:17:03;99131.35;;;12.86;93.86
42411;BME280;28056;51.112;0.984;2023-10-31T08:19:30;99132.11;;;12.70;94.58
42411;BME280;28056;51.112;0.984;2023-10-31T08:21:57;99131.88;;;13.10;94.03
42411;BME280;28056;51.112;0.984;2023-10-31T08:24:24;99133.96;;;13.18;93.91
42411;BME280;28056;51.112;0.984;2023-10-31T08:26:52;99132.22;;;13.26;93.49
42411;BME280;28056;51.112;0.984;2023-10-31T08:29:19;99136.35;;;13.15;93.43
42411;BME280;28056;51.112;0.984;2023-10-31T08:31:46;99139.37;;;12.66;95.45
42411;BME280;28056;51.112;0.984;2023-10-31T08:34:13;99143.86;;;12.72;95.56
42411;BME280;28056;51.112;0.984;2023-10-31T08:36:41;99145.50;;;13.39;95.04
42411;BME280;28056;51.112;0.984;2023-10-31T08:39:09;99146.60;;;13.17;95.99
42411;BME280;28056;51.112;0.984;2023-10-31T08:41:36;99149.84;;;13.16;97.11
42411;BME280;28056;51.112;0.984;2023-10-31T08:44:04;99157.56;;;13.43;96.96
42411;BME280;28056;51.112;0.984;2023-10-31T08:46:31;99165.14;;;13.41;97.10
42411;BME280;28056;51.112;0.984;2023-10-31T08:48:58;99171.41;;;13.25;98.49
42411;BME280;28056;51.112;0.984;2023-10-31T08:51:25;99170.09;;;13.34;98.10
42411;BME280;28056;51.112;0.984;2023-10-31T08:53:52;99169.39;;;13.89;96.86
42411;BME280;28056;51.112;0.984;2023-10-31T08:56:19;99166.58;;;13.78;95.97
42411;BME280;28056;51.112;0.984;2023-10-31T08:58:48;99165.63;;;13.40;96.65
42411;BME280;28056;51.112;0.984;2023-10-31T09:01:15;99165.92;;;13.26;97.68
42411;BME280;28056;51.112;0.984;2023-10-31T09:03:43;99162.28;;;13.34;96.15
42411;BME280;28056;51.112;0.984;2023-10-31T09:06:11;99165.05;;;13.07;96.93
42411;BME280;28056;51.112;0.984;2023-10-31T09:08:38;99169.37;;;13.14;98.62
42411;BME280;28056;51.112;0.984;2023-10-31T09:11:05;99172.94;;;13.81;96.88
42411;BME280;28056;51.112;0.984;2023-10-31T09:13:33;99176.65;;;13.25;100.00
42411;BME280;28056;51.112;0.984;2023-10-31T09:16:00;99175.19;;;13.62;98.47
42411;BME280;28056;51.112;0.984;2023-10-31T09:18:28;99180.31;;;13.14;100.00
42411;BME280;28056;51.112;0.984;2023-10-31T09:20:55;99186.45;;;12.76;100.00
42411;BME280;28056;51.112;0.984;2023-10-31T09:23:23;99191.67;;;13.36;99.48
42411;BME280;28056;51.112;0.984;2023-10-31T09:25:51;99190.61;;;13.43;100.00
42411;BME280;28056;51.112;0.984;2023-10-31T09:28:19;99191.70;;;13.98;100.00
42411;BME280;28056;51.112;0.984;2023-10-31T09:30:46;99188.41;;;13.90;100.00
42411;BME280;28056;51.112;0.984;2023-10-31T09:33:14;99184.74;;;14.27;100.00
42411;BME280;28056;51.112;0.984;2023-10-31T09:35:41;99182.69;;;13.43;100.00
42411;BME280;28056;51.112;0.984;2023-10-31T09:38:09;99182.61;;;13.78;100.00
42411;BME280;28056;51.112;0.984;2023-10-31T09:40:37;99182.65;;;14.15;100.00
42411;BME280;28056;51.112;0.984;2023-10-31T09:43:05;99185.37;;;13.91;100.00
42411;BME280;28056;51.112;0.984;2023-10-31T09:45:32;99188.11;;;14.23;100.00
42411;BME280;28056;51.112;0.984;2023-10-31T09:48:01;99191.75;;;14.34;100.00
42411;BME280;28056;51.112;0.984;2023-10-31T09:50:29;99199.77;;;14.77;100.00
42411;BME280;28056;51.112;0.984;2023-10-31T09:52:58;99205.73;;;14.93;100.00
42411;BME280;28056;51.112;0.984;2023-10-31T09:55:27;99207.86;;;14.62;100.00
42411;BME280;28056;51.112;0.984;2023-10-31T09:57:55;99205.79;;;14.18;100.00
42411;BME280;28056;51.112;0.984;2023-10-31T10:00:22;99205.05;;;14.18;100.00
42411;BME280;28056;51.112;0.984;2023-10-31T10:02:50;99205.39;;;14.48;100.00
42411;BME280;28056;51.112;0.984;2023-10-31T10:05:18;99210.08;;;13.95;100.00
42411;BME280;28056;51.112;0.984;2023-10-31T10:07:47;99212.57;;;14.04;100.00
42411;BME280;28056;51.112;0.984;2023-10-31T10:10:14;99212.87;;;14.65;100.00
42411;BME280;28056;51.112;0.984;2023-10-31T10:12:42;99213.48;;;13.26;100.00
42411;BME280;28056;51.112;0.984;2023-10-31T10:15:10;99210.73;;;13.45;100.00
42411;BME280;28056;51.112;0.984;2023-10-31T10:17:38;99215.35;;;13.26;100.00
42411;BME280;28056;51.112;0.984;2023-10-31T10:20:07;99221.52;;;13.43;100.00
42411;BME280;28056;51.112;0.984;2023-10-31T10:22:37;99227.56;;;13.46;100.00
42411;BME280;28056;51.112;0.984;2023-10-31T10:25:06;99226.11;;;12.99;100.00
42411;BME280;28056;51.112;0.984;2023-10-31T10:27:33;99224.42;;;13.87;100.00
42411;BME280;28056;51.112;0.984;2023-10-31T10:30:01;99224.99;;;13.22;100.00
42411;BME280;28056;51.112;0.984;2023-10-31T10:32:28;99226.05;;;13.36;100.00
42411;BME280;28056;51.112;0.984;2023-10-31T10:34:56;99230.02;;;13.68;100.00
42411;BME280;28056;51.112;0.984;2023-10-31T10:37:26;99229.83;;;13.52;100.00
42411;BME280;28056;51.112;0.984;2023-10-31T10:39:54;99230.02;;;14.70;100.00
42411;BME280;28056;51.112;0.984;2023-10-31T10:42:31;99229.83;;;14.79;100.00
42411;BME280;28056;51.112;0.984;2023-10-31T10:45:03;99229.00;;;14.38;100.00
42411;BME280;28056;51.112;0.984;2023-10-31T10:47:31;99229.07;;;14.77;100.00
42411;BME280;28056;51.112;0.984;2023-10-31T10:50:00;99223.59;;;14.64;100.00
42411;BME280;28056;51.112;0.984;2023-10-31T10:52:30;99223.95;;;14.18;100.00
42411;BME280;28056;51.112;0.984;2023-10-31T10:55:04;99223.91;;;14.95;100.00
42411;BME280;28056;51.112;0.984;2023-10-31T10:57:39;99220.64;;;15.01;100.00
42411;BME280;28056;51.112;0.984;2023-10-31T11:00:10;99220.43;;;14.68;100.00
42411;BME280;28056;51.112;0.984;2023-10-31T11:02:39;99222.66;;;14.91;100.00
42411;BME280;28056;51.112;0.984;2023-10-31T11:05:08;99221.95;;;14.46;100.00
42411;BME280;28056;51.112;0.984;2023-10-31T11:07:37;99223.75;;;15.58;100.00
42411;BME280;28056;51.112;0.984;2023-10-31T11:10:05;99219.96;;;14.37;100.00
42411;BME280;28056;51.112;0.984;2023-10-31T11:12:33;99221.52;;;14.99;100.00
42411;BME280;28056;51.112;0.984;2023-10-31T11:15:01;99221.78;;;15.67;100.00
42411;BME280;28056;51.112;0.984;2023-10-31T11:17:32;99221.11;;;14.88;100.00
42411;BME280;28056;51.112;0.984;2023-10-31T11:20:01;99221.17;;;14.73;100.00
42411;BME280;28056;51.112;0.984;2023-10-31T11:22:37;99217.76;;;14.61;100.00
42411;BME280;28056;51.112;0.984;2023-10-31T11:25:07;99216.01;;;15.17;100.00
42411;BME280;28056;51.112;0.984;2023-10-31T11:27:35;99217.60;;;15.47;100.00
42411;BME280;28056;51.112;0.984;2023-10-31T11:30:05;99213.86;;;15.05;100.00
42411;BME280;28056;51.112;0.984;2023-10-31T11:32:33;99212.21;;;14.03;100.00
42411;BME280;28056;51.112;0.984;2023-10-31T11:35:00;99219.88;;;14.76;100.00
42411;BME280;28056;51.112;0.984;2023-10-31T11:37:32;99214.10;;;14.27;100.00
42411;BME280;28056;51.112;0.984;2023-10-31T11:40:17;99209.94;;;15.18;100.00
42411;BME280;28056;51.112;0.984;2023-10-31T11:42:48;99208.81;;;16.07;100.00
42411;BME280;28056;51.112;0.984;2023-10-31T11:45:26;99206.63;;;16.65;100.00
42411;BME280;28056;51.112;0.984;2023-10-31T11:47:55;99204.00;;;16.33;95.08
42411;BME280;28056;51.112;0.984;2023-10-31T11:50:23;99204.79;;;17.00;97.48
42411;BME280;28056;51.112;0.984;2023-10-31T11:53:08;99201.20;;;16.06;92.94
42411;BME280;28056;51.112;0.984;2023-10-31T11:55:36;99201.76;;;15.83;91.87
42411;BME280;28056;51.112;0.984;2023-10-31T11:58:21;99201.38;;;16.04;88.77
42411;BME280;28056;51.112;0.984;2023-10-31T12:00:50;99199.87;;;15.66;89.42
42411;BME280;28056;51.112;0.984;2023-10-31T12:03:19;99204.47;;;15.66;93.83
42411;BME280;28056;51.112;0.984;2023-10-31T12:05:56;99202.35;;;15.78;89.98
42411;BME280;28056;51.112;0.984;2023-10-31T12:08:26;99202.87;;;15.77;92.45
42411;BME280;28056;51.112;0.984;2023-10-31T12:11:03;99202.12;;;15.79;92.20
42411;BME280;28056;51.112;0.984;2023-10-31T12:13:31;99207.44;;;15.84;94.40
42411;BME280;28056;51.112;0.984;2023-10-31T12:15:59;99207.21;;;16.82;92.13
42411;BME280;28056;51.112;0.984;2023-10-31T12:18:26;99204.12;;;16.27;86.30
42411;BME280;28056;51.112;0.984;2023-10-31T12:20:53;99204.84;;;18.34;85.49
42411;BME280;28056;51.112;0.984;2023-10-31T12:23:21;99206.97;;;19.74;81.65
42411;BME280;28056;51.112;0.984;2023-10-31T12:25:50;99202.28;;;20.63;71.02
42411;BME280;28056;51.112;0.984;2023-10-31T12:28:18;99204.00;;;21.37;77.38
42411;BME280;28056;51.112;0.984;2023-10-31T12:30:46;99200.30;;;21.77;61.02
42411;BME280;28056;51.112;0.984;2023-10-31T12:33:14;99202.63;;;22.53;64.48
42411;BME280;28056;51.112;0.984;2023-10-31T12:35:42;99199.32;;;22.43;66.51
42411;BME280;28056;51.112;0.984;2023-10-31T12:38:11;99200.32;;;23.99;54.21
42411;BME280;28056;51.112;0.984;2023-10-31T12:40:40;99207.26;;;24.78;61.78
42411;BME280;28056;51.112;0.984;2023-10-31T12:43:07;99204.30;;;25.36;58.47
42411;BME280;28056;51.112;0.984;2023-10-31T12:45:36;99200.05;;;24.59;51.70
42411;BME280;28056;51.112;0.984;2023-10-31T12:48:05;99202.41;;;24.99;45.01
42411;BME280;28056;51.112;0.984;2023-10-31T12:50:33;99206.95;;;25.15;43.60
42411;BME280;28056;51.112;0.984;2023-10-31T12:53:01;99206.86;;;25.66;44.20
42411;BME280;28056;51.112;0.984;2023-10-31T12:55:29;99218.56;;;24.75;48.64
42411;BME280;28056;51.112;0.984;2023-10-31T12:57:57;99215.83;;;24.02;46.17
42411;BME280;28056;51.112;0.984;2023-10-31T13:00:32;99210.44;;;25.49;58.76
42411;BME280;28056;51.112;0.984;2023-10-31T13:03:01;99213.49;;;23.04;47.43